Time;durP1;ratioP1;P1;durP2;ratioP2;P2;SDS_P1;SDS_P2;PMS_P1;PMS_P2;Temp;Humidity;BMP_temperature;BMP_pressure;BME280_temperature;BME280_humidity;BME280_pressure;Samples;Min_cycle;Max_cycle;Signal;HPM_P1;HPM_P2
2023/12/30 00:01:36;;;;;;;1.50;0.30;;;;;;;7.59;100.00;100018.69;5053634;28;20438;-71
2023/12/30 00:04:03;;;;;;;1.50;0.30;;;;;;;7.57;100.00;100017.38;5053544;28;20481;-71
2023/12/30 00:06:30;;;;;;;1.50;0.30;;;;;;;7.54;100.00;100008.00;5053477;28;20434;-71
2023/12/30 00:08:58;;;;;;;1.50;0.30;;;;;;;7.55;100.00;100016.88;5053411;28;20434;-70
2023/12/30 00:11:24;;;;;;;1.50;0.30;;;;;;;7.51;100.00;100013.97;5057536;28;20517;-70
2023/12/30 00:13:51;;;;;;;1.50;0.40;;;;;;;7.57;100.00;100030.88;5061458;28;20462;-70
2023/12/30 00:16:18;;;;;;;1.50;0.40;;;;;;;7.56;100.00;100021.97;5053510;28;20438;-70
2023/12/30 00:18:44;;;;;;;1.50;0.30;;;;;;;7.56;100.00;100023.84;5052990;28;20576;-70
2023/12/30 00:21:11;;;;;;;1.77;0.53;;;;;;;7.57;100.00;100001.22;5053424;28;20440;-70
2023/12/30 00:23:42;;;;;;;1.97;0.50;;;;;;;7.59;100.00;99980.94;5057309;28;20946;-70
2023/12/30 00:26:19;;;;;;;1.50;0.30;;;;;;;7.58;100.00;99951.59;5053082;28;20422;-70
2023/12/30 00:28:45;;;;;;;1.50;0.30;;;;;;;7.61;100.00;99961.78;5052916;28;20993;-70
2023/12/30 00:31:21;;;;;;;1.50;0.40;;;;;;;7.64;100.00;99981.97;5054533;28;20435;-70
2023/12/30 00:33:47;;;;;;;1.50;0.40;;;;;;;7.67;100.00;99989.47;5053939;28;20456;-70
2023/12/30 00:36:14;;;;;;;1.50;0.40;;;;;;;7.67;100.00;99998.34;5052464;28;20439;-70
2023/12/30 00:38:40;;;;;;;1.60;0.40;;;;;;;7.69;100.00;100015.00;5052764;28;20900;-70
2023/12/30 00:41:07;;;;;;;1.50;0.30;;;;;;;7.68;100.00;100029.59;5052768;28;20982;-70
2023/12/30 00:43:37;;;;;;;1.50;0.40;;;;;;;7.69;100.00;100028.50;5053529;28;20529;-70
2023/12/30 00:46:04;;;;;;;2.00;0.40;;;;;;;7.69;100.00;100025.00;5052965;28;20986;-70
2023/12/30 00:48:31;;;;;;;1.50;0.30;;;;;;;7.71;100.00;100022.81;5052792;28;20989;-70
2023/12/30 00:50:57;;;;;;;1.60;0.40;;;;;;;7.74;100.00;100023.00;5053051;28;20818;-70
2023/12/30 00:53:24;;;;;;;1.70;0.40;;;;;;;7.77;100.00;100019.72;5053329;28;20480;-70
2023/12/30 00:55:51;;;;;;;1.50;0.40;;;;;;;7.80;100.00;100031.81;5059171;28;20863;-69
2023/12/30 00:58:17;;;;;;;1.50;0.30;;;;;;;7.80;100.00;100035.31;5054413;28;20556;-69
2023/12/30 01:00:45;;;;;;;1.40;0.30;;;;;;;7.89;100.00;100034.66;5052713;28;20525;-70
2023/12/30 01:03:12;;;;;;;1.50;0.30;;;;;;;7.93;100.00;100039.16;5053211;28;20542;-70
2023/12/30 01:05:38;;;;;;;1.50;0.40;;;;;;;7.89;100.00;100037.34;5052661;28;20913;-70
2023/12/30 01:08:05;;;;;;;1.50;0.40;;;;;;;7.90;100.00;100047.81;5052833;28;20518;-70
2023/12/30 01:10:32;;;;;;;1.50;0.30;;;;;;;7.95;100.00;100038.84;5053941;28;20953;-70
2023/12/30 01:12:59;;;;;;;1.50;0.40;;;;;;;7.94;100.00;100048.81;5052550;28;20442;-70
2023/12/30 01:15:26;;;;;;;1.50;0.40;;;;;;;7.97;100.00;100042.03;5055040;28;20524;-69
2023/12/30 01:17:54;;;;;;;1.50;0.37;;;;;;;7.92;100.00;100042.91;5054938;28;20881;-69
2023/12/30 01:20:20;;;;;;;1.53;0.37;;;;;;;7.91;100.00;100043.22;5052784;28;20529;-69
2023/12/30 01:22:47;;;;;;;1.50;0.37;;;;;;;7.87;100.00;100036.81;5052403;28;20862;-69
2023/12/30 01:25:14;;;;;;;1.50;0.40;;;;;;;7.80;100.00;100029.94;5052381;28;20461;-69
2023/12/30 01:27:40;;;;;;;1.50;0.40;;;;;;;7.76;100.00;100037.00;5053294;28;20538;-69
2023/12/30 01:30:08;;;;;;;1.50;0.30;;;;;;;7.71;100.00;100052.47;5054995;28;20466;-72
2023/12/30 01:32:34;;;;;;;1.60;0.50;;;;;;;7.68;100.00;100045.75;5056272;28;20434;-69
2023/12/30 01:35:03;;;;;;;1.60;0.40;;;;;;;7.67;100.00;100056.84;5059566;28;20885;-69
2023/12/30 01:37:31;;;;;;;1.50;0.40;;;;;;;7.64;100.00;100066.31;5056706;28;20474;-69
2023/12/30 01:39:58;;;;;;;1.50;0.40;;;;;;;7.67;100.00;100068.44;5056472;28;20541;-69
2023/12/30 01:42:24;;;;;;;1.70;0.50;;;;;;;7.64;100.00;100069.00;5056982;28;20456;-69
2023/12/30 01:44:51;;;;;;;1.50;0.30;;;;;;;7.59;100.00;100069.88;5055842;28;20492;-68
2023/12/30 01:47:18;;;;;;;1.50;0.40;;;;;;;7.57;100.00;100069.41;5055917;28;20513;-68
2023/12/30 01:49:46;;;;;;;1.50;0.30;;;;;;;7.56;100.00;100066.97;5056186;28;20517;-68
2023/12/30 01:52:14;;;;;;;2.23;0.50;;;;;;;7.58;100.00;100073.69;5056771;28;20484;-69
2023/12/30 01:54:41;;;;;;;1.50;0.30;;;;;;;7.58;100.00;100078.28;5055945;28;20458;-69
2023/12/30 01:57:09;;;;;;;1.50;0.40;;;;;;;7.58;100.00;100086.34;5055603;28;20438;-69
2023/12/30 01:59:37;;;;;;;1.50;0.30;;;;;;;7.60;100.00;100081.47;5055944;28;20525;-70
2023/12/30 02:02:04;;;;;;;1.50;0.40;;;;;;;7.56;100.00;100086.63;5063512;28;20434;-69
2023/12/30 02:04:30;;;;;;;1.70;0.50;;;;;;;7.61;100.00;100079.56;5055906;28;20553;-69
2023/12/30 02:06:57;;;;;;;1.50;0.40;;;;;;;7.54;100.00;100078.06;5055561;28;20471;-69
2023/12/30 02:09:25;;;;;;;1.50;0.30;;;;;;;7.60;100.00;100084.16;5056380;28;20814;-69
2023/12/30 02:11:52;;;;;;;1.50;0.40;;;;;;;7.60;100.00;100084.16;5055400;28;20445;-69
2023/12/30 02:14:26;;;;;;;1.60;0.40;;;;;;;7.60;100.00;100084.16;5055239;28;20450;-70
2023/12/30 02:16:52;;;;;;;1.50;0.40;;;;;;;7.63;100.00;100080.88;5056114;28;20462;-70
2023/12/30 02:19:19;;;;;;;1.70;0.70;;;;;;;7.64;100.00;100076.28;5055605;28;20903;-69
2023/12/30 02:21:46;;;;;;;1.50;0.30;;;;;;;7.66;100.00;100082.19;5055197;28;20465;-69
2023/12/30 02:24:14;;;;;;;1.57;0.40;;;;;;;7.66;100.00;100082.19;5055112;28;20473;-69
2023/12/30 02:26:41;;;;;;;1.60;0.40;;;;;;;7.69;100.00;100085.09;5055218;28;20514;-69
2023/12/30 02:29:08;;;;;;;1.60;0.50;;;;;;;7.73;100.00;100088.81;5055867;28;20430;-69
2023/12/30 02:31:36;;;;;;;1.77;0.60;;;;;;;7.77;100.00;100100.59;5055238;28;20488;-69
2023/12/30 02:34:03;;;;;;;2.50;0.80;;;;;;;7.77;100.00;100097.91;5067669;22;20830;-63
2023/12/30 02:36:30;;;;;;;1.50;0.40;;;;;;;7.80;100.00;100094.63;5047027;28;20980;-63
2023/12/30 02:38:57;;;;;;;1.50;0.40;;;;;;;7.82;100.00;100095.13;5040584;28;20478;-63
2023/12/30 02:41:27;;;;;;;1.90;0.50;;;;;;;7.84;100.00;100097.53;5049510;28;20442;-63
2023/12/30 02:43:58;;;;;;;1.63;0.40;;;;;;;7.88;100.00;100108.50;5054870;28;20462;-63
2023/12/30 02:46:25;;;;;;;1.60;0.40;;;;;;;7.90;100.00;100109.03;5037784;28;20507;-63
2023/12/30 02:48:51;;;;;;;1.50;0.33;;;;;;;7.91;100.00;100100.66;5035999;28;20466;-66
2023/12/30 02:51:18;;;;;;;2.10;0.73;;;;;;;7.86;100.00;100094.53;5036034;28;20807;-64
2023/12/30 02:53:45;;;;;;;1.83;0.57;;;;;;;7.85;100.00;100096.44;5054020;28;20500;-63
2023/12/30 02:56:19;;;;;;;1.50;0.33;;;;;;;7.83;100.00;100095.91;5037932;28;20923;-63
2023/12/30 02:58:49;;;;;;;1.70;0.60;;;;;;;7.86;100.00;100103.44;5035223;28;20467;-64
2023/12/30 03:01:16;;;;;;;1.60;0.40;;;;;;;7.88;100.00;100103.94;5035529;28;20526;-63
2023/12/30 03:03:43;;;;;;;1.50;0.30;;;;;;;7.82;100.00;100105.09;5036052;28;20801;-63
2023/12/30 03:06:13;;;;;;;1.70;0.50;;;;;;;7.83;100.00;100109.41;5036044;28;20523;-63
2023/12/30 03:08:40;;;;;;;1.50;0.30;;;;;;;7.87;100.00;100117.72;5042756;28;20434;-63
2023/12/30 03:11:08;;;;;;;1.50;0.30;;;;;;;7.86;100.00;100110.72;5053696;28;20992;-63
2023/12/30 03:13:35;;;;;;;1.60;0.40;;;;;;;7.82;100.00;100108.59;5030755;28;20437;-63
2023/12/30 03:16:03;;;;;;;1.50;0.47;;;;;;;7.82;100.00;100111.28;5044734;28;20541;-63
2023/12/30 03:18:30;;;;;;;2.00;0.50;;;;;;;7.81;100.00;100111.59;5036778;28;20566;-63
2023/12/30 03:20:56;;;;;;;1.60;0.50;;;;;;;7.76;100.00;100117.06;5033035;28;20439;-63
2023/12/30 03:23:23;;;;;;;1.50;0.40;;;;;;;7.73;100.00;100102.28;5042222;28;20522;-63
2023/12/30 03:25:51;;;;;;;1.77;0.50;;;;;;;7.76;100.00;100084.72;5034882;28;20455;-63
2023/12/30 03:28:18;;;;;;;1.60;0.40;;;;;;;7.79;100.00;100087.66;5051802;28;20523;-63
2023/12/30 03:30:45;;;;;;;1.50;0.40;;;;;;;7.75;100.00;100086.63;5036891;28;20424;-62
2023/12/30 03:33:13;;;;;;;1.60;0.40;;;;;;;7.75;100.00;100083.94;5035062;28;20443;-62
2023/12/30 03:35:39;;;;;;;1.70;0.50;;;;;;;7.72;100.00;100062.16;5034696;28;20554;-62
2023/12/30 03:38:06;;;;;;;1.70;0.40;;;;;;;7.69;100.00;100079.69;5034272;28;20514;-62
2023/12/30 03:40:33;;;;;;;1.60;0.40;;;;;;;7.67;100.00;100081.91;5031589;28;20976;-62
2023/12/30 03:43:00;;;;;;;1.60;0.40;;;;;;;7.66;100.00;100084.88;5031620;28;20516;-62
2023/12/30 03:45:26;;;;;;;1.53;0.40;;;;;;;7.65;100.00;100094.84;5049275;28;20545;-62
2023/12/30 03:47:54;;;;;;;1.70;0.50;;;;;;;7.63;100.00;100096.25;5054495;28;20525;-62
2023/12/30 03:50:22;;;;;;;1.60;0.40;;;;;;;7.59;100.00;100088.75;5036005;28;20434;-62
2023/12/30 03:52:50;;;;;;;1.60;0.40;;;;;;;7.60;100.00;100086.84;5024118;28;20924;-62
2023/12/30 03:55:16;;;;;;;1.50;0.30;;;;;;;7.62;100.00;100090.06;5028047;28;20530;-62
2023/12/30 03:57:43;;;;;;;1.80;0.50;;;;;;;7.57;100.00;100085.56;5034926;28;20446;-62
2023/12/30 04:00:11;;;;;;;1.90;0.60;;;;;;;7.61;100.00;100088.44;5044375;28;20519;-62
2023/12/30 04:02:37;;;;;;;1.63;0.43;;;;;;;7.63;100.00;100098.97;5033753;28;20465;-62
2023/12/30 04:05:05;;;;;;;1.60;0.40;;;;;;;7.55;100.00;100105.81;5033958;28;20463;-62
2023/12/30 04:07:33;;;;;;;1.50;0.30;;;;;;;7.53;100.00;100111.50;5035206;28;20435;-62
2023/12/30 04:09:59;;;;;;;1.60;0.40;;;;;;;7.53;100.00;100114.19;5043713;28;20427;-62
2023/12/30 04:12:26;;;;;;;1.87;0.60;;;;;;;7.51;100.00;100115.56;5036443;28;20498;-62
2023/12/30 04:14:53;;;;;;;1.50;0.30;;;;;;;7.50;100.00;100116.66;5052683;28;20495;-62
2023/12/30 04:17:19;;;;;;;1.60;0.40;;;;;;;7.52;100.00;100117.16;5034664;28;20931;-62
2023/12/30 04:19:46;;;;;;;1.50;0.30;;;;;;;7.52;100.00;100122.53;5049892;28;20997;-62
2023/12/30 04:22:12;;;;;;;1.50;0.30;;;;;;;7.54;100.00;100126.56;5050191;28;20462;-62
2023/12/30 04:24:40;;;;;;;1.60;0.40;;;;;;;7.53;100.00;100130.34;5053305;28;20574;-62
2023/12/30 04:27:07;;;;;;;1.70;0.50;;;;;;;7.48;100.00;100126.91;5053050;28;20526;-62
2023/12/30 04:29:34;;;;;;;1.50;0.40;;;;;;;7.49;100.00;100148.19;5046612;28;20518;-62
2023/12/30 04:32:00;;;;;;;1.60;0.40;;;;;;;7.54;100.00;100141.94;5047981;28;20526;-62
2023/12/30 04:34:27;;;;;;;1.70;0.50;;;;;;;7.41;100.00;100148.06;5047667;28;20979;-62
2023/12/30 04:36:54;;;;;;;3.60;0.60;;;;;;;7.44;100.00;100152.88;5044833;28;20438;-62
2023/12/30 04:39:21;;;;;;;2.03;0.40;;;;;;;7.47;100.00;100163.84;5049388;28;20991;-62
2023/12/30 04:41:49;;;;;;;1.60;0.47;;;;;;;7.44;100.00;100159.06;5046056;28;20533;-62
2023/12/30 04:44:15;;;;;;;1.57;0.47;;;;;;;7.41;100.00;100148.84;5051628;28;20466;-62
2023/12/30 04:46:42;;;;;;;1.60;0.40;;;;;;;7.35;100.00;100150.00;5037829;28;20983;-62
2023/12/30 04:49:10;;;;;;;1.50;0.30;;;;;;;7.38;100.00;100159.41;5028795;28;20427;-62
2023/12/30 04:51:37;;;;;;;1.50;0.40;;;;;;;7.31;100.00;100162.47;5043271;28;20443;-62
2023/12/30 04:54:04;;;;;;;1.50;0.33;;;;;;;7.32;100.00;100175.63;5053332;28;20536;-62
2023/12/30 04:56:30;;;;;;;1.57;0.40;;;;;;;7.39;100.00;100177.16;5041663;28;20954;-62
2023/12/30 04:58:59;;;;;;;1.50;0.40;;;;;;;7.28;100.00;100176.50;5033237;28;20920;-62
2023/12/30 05:01:25;;;;;;;1.50;0.30;;;;;;;7.32;100.00;100172.94;5044309;28;20436;-61
2023/12/30 05:03:52;;;;;;;1.57;0.40;;;;;;;7.33;100.00;100174.53;5041680;28;20512;-62
2023/12/30 05:06:21;;;;;;;2.47;0.53;;;;;;;7.40;100.00;100184.97;5038167;28;20501;-62
2023/12/30 05:08:47;;;;;;;1.50;0.30;;;;;;;7.41;100.00;100191.16;5038028;28;20530;-62
2023/12/30 05:11:14;;;;;;;1.57;0.40;;;;;;;7.38;100.00;100203.31;5037306;28;20470;-61
2023/12/30 05:13:41;;;;;;;1.60;0.40;;;;;;;7.39;100.00;100209.50;5047027;28;20455;-62
2023/12/30 05:16:09;;;;;;;1.50;0.40;;;;;;;7.38;100.00;100205.19;5035127;28;20435;-61
2023/12/30 05:18:36;;;;;;;1.60;0.40;;;;;;;7.36;100.00;100204.69;5041758;28;20479;-61
2023/12/30 05:21:02;;;;;;;1.50;0.40;;;;;;;7.36;100.00;100207.41;5037330;28;20522;-61
2023/12/30 05:23:29;;;;;;;1.70;0.40;;;;;;;7.43;100.00;100199.75;5052042;28;20438;-61
2023/12/30 05:25:57;;;;;;;1.80;0.50;;;;;;;7.42;100.00;100211.63;5044935;28;20431;-61
2023/12/30 05:28:23;;;;;;;1.50;0.40;;;;;;;7.45;100.00;100211.84;5040006;28;20840;-62
2023/12/30 05:30:50;;;;;;;2.70;0.50;;;;;;;7.40;99.59;100222.69;5037051;28;20439;-61
2023/12/30 05:33:18;;;;;;;1.60;0.40;;;;;;;7.39;99.91;100218.38;5047571;28;20473;-61
2023/12/30 05:35:44;;;;;;;2.00;0.60;;;;;;;7.43;99.22;100224.78;5051938;28;20469;-61
2023/12/30 05:38:12;;;;;;;1.70;0.50;;;;;;;7.38;99.53;100234.84;5044705;28;20798;-61
2023/12/30 05:40:39;;;;;;;1.70;0.40;;;;;;;7.38;100.00;100234.84;5024022;28;20498;-61
2023/12/30 05:43:06;;;;;;;1.60;0.40;;;;;;;7.41;100.00;100236.97;5026486;28;20439;-61
2023/12/30 05:45:32;;;;;;;2.70;0.63;;;;;;;7.40;100.00;100246.16;5045776;28;20485;-61
2023/12/30 05:47:59;;;;;;;1.60;0.40;;;;;;;7.50;99.82;100254.91;5035734;28;20435;-61
2023/12/30 05:50:27;;;;;;;2.17;0.73;;;;;;;7.45;100.00;100254.16;5041952;28;20518;-61
2023/12/30 05:52:54;;;;;;;1.50;0.40;;;;;;;7.37;100.00;100255.59;5034456;28;20466;-61
2023/12/30 05:55:21;;;;;;;1.50;0.40;;;;;;;7.33;100.00;100257.25;5036417;28;20505;-61
2023/12/30 05:57:47;;;;;;;1.60;0.50;;;;;;;7.25;100.00;100264.06;5043669;28;20437;-62
2023/12/30 06:00:15;;;;;;;1.60;0.40;;;;;;;7.17;100.00;100270.09;5043771;28;20574;-62
2023/12/30 06:02:42;;;;;;;1.80;0.37;;;;;;;7.12;100.00;100280.09;5047529;28;20439;-62
2023/12/30 06:05:09;;;;;;;1.60;0.40;;;;;;;7.00;100.00;100289.41;5054427;28;20500;-62
2023/12/30 06:07:38;;;;;;;1.90;0.40;;;;;;;7.02;100.00;100297.97;5055521;28;20510;-62
2023/12/30 06:10:05;;;;;;;1.50;0.40;;;;;;;7.01;100.00;100295.56;5049757;28;20435;-62
2023/12/30 06:12:32;;;;;;;1.70;0.50;;;;;;;6.95;100.00;100294.84;5054275;28;20461;-62
2023/12/30 06:14:59;;;;;;;1.50;0.30;;;;;;;6.90;100.00;100294.06;5035634;28;21058;-62
2023/12/30 06:17:25;;;;;;;1.60;0.40;;;;;;;6.82;100.00;100304.38;5038010;28;20919;-62
2023/12/30 06:19:52;;;;;;;1.60;0.40;;;;;;;6.80;100.00;100293.06;5041639;28;20565;-62
2023/12/30 06:22:19;;;;;;;2.13;0.47;;;;;;;6.81;100.00;100304.63;5038810;28;20440;-62
2023/12/30 06:24:46;;;;;;;1.57;0.43;;;;;;;6.80;100.00;100300.34;5036021;28;20470;-62
2023/12/30 06:27:13;;;;;;;1.50;0.30;;;;;;;6.73;100.00;100306.06;5035867;28;20443;-62
2023/12/30 06:29:40;;;;;;;1.60;0.40;;;;;;;6.72;100.00;100311.72;5035833;28;20443;-62
2023/12/30 06:32:07;;;;;;;1.60;0.40;;;;;;;6.62;100.00;100312.59;5046534;28;20517;-62
2023/12/30 06:34:34;;;;;;;1.60;0.40;;;;;;;6.64;100.00;100313.13;5042313;28;20467;-63
2023/12/30 06:37:01;;;;;;;2.17;0.50;;;;;;;6.60;100.00;100322.03;5055971;28;20446;-64
2023/12/30 06:39:27;;;;;;;1.60;0.40;;;;;;;6.55;100.00;100326.38;5040075;28;20483;-62
2023/12/30 06:41:59;;;;;;;1.60;0.40;;;;;;;6.59;100.00;100326.59;5040972;28;20523;-62
2023/12/30 06:44:25;;;;;;;1.50;0.40;;;;;;;6.58;100.00;100336.56;5052652;28;20524;-62
2023/12/30 06:46:52;;;;;;;1.57;0.37;;;;;;;6.59;100.00;100332.00;5041966;28;20482;-62
2023/12/30 06:49:19;;;;;;;1.80;0.40;;;;;;;6.57;99.98;100344.94;5038395;28;20446;-62
2023/12/30 06:51:45;;;;;;;1.70;0.40;;;;;;;6.58;99.40;100346.53;5036739;28;20518;-62
2023/12/30 06:54:12;;;;;;;1.53;0.40;;;;;;;6.55;99.71;100352.47;5035037;28;20984;-62
2023/12/30 06:56:38;;;;;;;1.50;0.40;;;;;;;6.55;99.66;100353.28;5036207;28;21014;-62
2023/12/30 06:59:06;;;;;;;1.53;0.40;;;;;;;6.54;98.82;100358.94;5051518;28;20500;-62
2023/12/30 07:01:37;;;;;;;1.60;0.47;;;;;;;6.55;99.17;100363.22;5054847;28;20529;-62
2023/12/30 07:04:04;;;;;;;1.53;0.40;;;;;;;6.51;99.26;100375.66;5043539;28;21048;-62
2023/12/30 07:06:30;;;;;;;1.73;0.50;;;;;;;6.51;99.10;100375.66;5045002;28;20549;-62
2023/12/30 07:08:57;;;;;;;1.50;0.30;;;;;;;6.49;100.00;100372.44;5053255;28;20488;-62
2023/12/30 07:11:24;;;;;;;1.50;0.30;;;;;;;6.49;99.59;100380.50;5053741;28;20435;-62
2023/12/30 07:13:50;;;;;;;1.50;0.30;;;;;;;6.46;99.22;100379.19;5048093;28;20455;-62
2023/12/30 07:16:18;;;;;;;1.60;0.40;;;;;;;6.44;100.00;100385.91;5036758;28;20858;-62
2023/12/30 07:18:45;;;;;;;1.50;0.30;;;;;;;6.46;100.00;100392.63;5043453;28;20789;-62
2023/12/30 07:21:12;;;;;;;1.90;0.50;;;;;;;6.50;99.84;100403.63;5034905;28;20514;-62
2023/12/30 07:23:38;;;;;;;1.60;0.40;;;;;;;6.48;99.44;100405.81;5036242;28;20435;-62
2023/12/30 07:26:05;;;;;;;1.60;0.40;;;;;;;6.46;99.82;100406.09;5035099;28;20443;-62
2023/12/30 07:28:32;;;;;;;1.60;0.40;;;;;;;6.45;100.00;100414.41;5051871;28;20526;-65
2023/12/30 07:30:59;;;;;;;2.37;0.80;;;;;;;6.38;100.00;100411.25;5045725;28;20426;-61
2023/12/30 07:33:27;;;;;;;1.50;0.30;;;;;;;6.34;100.00;100410.19;5050636;28;20858;-61
2023/12/30 07:35:54;;;;;;;1.60;0.40;;;;;;;6.37;100.00;100426.56;5054236;28;20446;-63
2023/12/30 07:38:21;;;;;;;1.57;0.30;;;;;;;6.35;100.00;100420.66;5035630;28;20436;-62
2023/12/30 07:40:47;;;;;;;1.60;0.40;;;;;;;6.36;100.00;100432.22;5034969;28;21097;-63
2023/12/30 07:43:15;;;;;;;1.80;0.63;;;;;;;6.38;100.00;100430.06;5045736;28;20521;-63
2023/12/30 07:45:42;;;;;;;1.60;0.50;;;;;;;6.38;100.00;100438.94;5041068;28;20470;-62
2023/12/30 07:48:08;;;;;;;2.03;0.40;;;;;;;6.36;100.00;100441.09;5031338;28;20510;-61
2023/12/30 07:50:36;;;;;;;1.50;0.30;;;;;;;6.31;100.00;100450.00;5035386;28;20491;-62
2023/12/30 07:53:03;;;;;;;1.50;0.30;;;;;;;6.34;100.00;100451.34;5035841;28;20526;-62
2023/12/30 07:55:29;;;;;;;1.53;0.30;;;;;;;6.31;100.00;100451.88;5041230;28;20566;-62
2023/12/30 07:57:56;;;;;;;2.10;0.60;;;;;;;6.36;100.00;100449.16;5035445;28;20798;-62
2023/12/30 08:00:23;;;;;;;1.60;0.40;;;;;;;6.31;100.00;100450.00;5049938;28;20570;-62
2023/12/30 08:02:49;;;;;;;1.60;0.40;;;;;;;6.29;100.00;100462.94;5034491;28;20450;-62
2023/12/30 08:05:17;;;;;;;1.60;0.50;;;;;;;6.28;100.00;100463.97;5034747;28;20483;-62
2023/12/30 08:07:45;;;;;;;1.60;0.50;;;;;;;6.34;100.00;100474.75;5041315;28;20471;-62
2023/12/30 08:10:12;;;;;;;1.60;0.50;;;;;;;6.38;100.00;100475.81;5031151;28;20508;-62
2023/12/30 08:12:39;;;;;;;1.60;0.40;;;;;;;6.42;100.00;100463.38;5034543;28;20853;-62
2023/12/30 08:15:07;;;;;;;1.60;0.40;;;;;;;6.36;100.00;100472.56;5053585;28;20545;-63
2023/12/30 08:17:34;;;;;;;1.50;0.30;;;;;;;6.39;100.00;100477.41;5039919;28;20439;-64
2023/12/30 08:20:01;;;;;;;1.67;0.43;;;;;;;6.41;100.00;100481.41;5024932;28;20578;-62
2023/12/30 08:22:28;;;;;;;1.50;0.30;;;;;;;6.40;100.00;100484.41;5027810;28;20440;-62
2023/12/30 08:24:56;;;;;;;1.50;0.30;;;;;;;6.38;100.00;100489.25;5027741;28;20455;-62
2023/12/30 08:27:23;;;;;;;1.60;0.40;;;;;;;6.43;100.00;100486.53;5031585;28;20551;-62
2023/12/30 08:29:49;;;;;;;2.00;0.60;;;;;;;6.45;100.00;100485.16;5034812;28;20434;-62
2023/12/30 08:32:16;;;;;;;4.80;0.57;;;;;;;6.49;100.00;100480.84;5031843;28;20788;-62
2023/12/30 08:34:43;;;;;;;1.57;0.43;;;;;;;6.51;100.00;100480.59;5032495;28;20471;-62
2023/12/30 08:37:09;;;;;;;1.60;0.43;;;;;;;6.50;100.00;100487.84;5027818;28;20455;-62
2023/12/30 08:39:37;;;;;;;1.60;0.40;;;;;;;6.46;100.00;100497.56;5029921;28;20549;-62
2023/12/30 08:42:06;;;;;;;1.97;0.60;;;;;;;6.48;100.00;100486.53;5030613;28;20434;-62
2023/12/30 08:44:35;;;;;;;1.60;0.40;;;;;;;6.46;100.00;100485.97;5026882;28;20458;-62
2023/12/30 08:47:02;;;;;;;1.53;0.30;;;;;;;6.46;100.00;100489.50;5023732;28;20478;-62
2023/12/30 08:49:28;;;;;;;1.60;0.40;;;;;;;6.52;100.00;100501.84;5032031;28;20447;-62
2023/12/30 08:51:55;;;;;;;3.30;0.50;;;;;;;6.51;100.00;100502.13;5036246;28;20435;-62
2023/12/30 08:54:21;;;;;;;1.50;0.30;;;;;;;6.50;100.00;100500.47;5031015;28;20455;-62
2023/12/30 08:56:48;;;;;;;1.50;0.30;;;;;;;6.54;100.00;100499.66;5031685;28;20897;-62
2023/12/30 08:59:16;;;;;;;1.60;0.40;;;;;;;6.59;100.00;100501.53;5032582;28;20467;-62
2023/12/30 09:01:43;;;;;;;1.70;0.50;;;;;;;6.70;99.66;100504.97;5026646;28;20437;-62
2023/12/30 09:04:10;;;;;;;3.73;0.50;;;;;;;6.67;99.83;100503.63;5030503;28;21026;-62
2023/12/30 09:06:36;;;;;;;1.67;0.53;;;;;;;6.67;99.66;100495.56;5032907;28;20460;-62
2023/12/30 09:09:04;;;;;;;1.80;0.70;;;;;;;6.67;99.37;100508.22;5030207;28;20997;-62
2023/12/30 09:11:32;;;;;;;1.60;0.40;;;;;;;6.68;99.77;100501.75;5032681;28;20471;-62
2023/12/30 09:14:01;;;;;;;1.50;0.30;;;;;;;6.76;98.86;100520.81;5031694;28;20447;-62
2023/12/30 09:16:29;;;;;;;1.50;0.30;;;;;;;6.79;99.52;100528.34;5030280;28;20535;-62
2023/12/30 09:18:55;;;;;;;1.67;0.47;;;;;;;6.80;99.00;100532.66;5031235;28;20515;-62
2023/12/30 09:21:22;;;;;;;1.70;0.40;;;;;;;6.82;98.86;100530.50;5032587;28;20658;-62
2023/12/30 09:23:47;;;;;;;1.60;0.40;;;;;;;6.91;96.57;100528.03;5026117;28;20553;-62
2023/12/30 09:26:16;;;;;;;1.50;0.30;;;;;;;6.95;96.87;100539.84;5021109;28;20522;-62
2023/12/30 09:28:42;;;;;;;1.70;0.50;;;;;;;6.95;97.42;100534.47;5031396;28;20239;-64
2023/12/30 09:31:09;;;;;;;1.60;0.40;;;;;;;6.95;96.99;100539.84;5028151;28;20474;-65
2023/12/30 09:33:37;;;;;;;1.90;0.80;;;;;;;6.99;96.48;100540.06;5030765;28;20470;-65
2023/12/30 09:36:04;;;;;;;1.60;0.40;;;;;;;6.96;96.94;100540.66;5028651;28;20423;-62
2023/12/30 09:38:31;;;;;;;1.60;0.40;;;;;;;6.99;96.44;100548.16;5045187;28;20438;-62
2023/12/30 09:40:57;;;;;;;2.17;0.60;;;;;;;7.05;94.94;100563.22;5035440;28;20480;-62
2023/12/30 09:43:26;;;;;;;1.50;0.30;;;;;;;7.10;94.59;100563.19;5022304;28;20835;-62
2023/12/30 09:45:54;;;;;;;1.60;0.40;;;;;;;7.08;95.16;100562.66;5018843;28;20530;-62
2023/12/30 09:48:22;;;;;;;1.80;0.40;;;;;;;7.06;95.18;100564.81;5029056;28;20447;-63
2023/12/30 09:50:51;;;;;;;6.70;1.53;;;;;;;7.07;95.17;100578.00;5023350;28;20431;-62
2023/12/30 09:53:19;;;;;;;1.63;0.40;;;;;;;7.09;95.17;100572.34;5020698;28;20436;-62
2023/12/30 09:55:47;;;;;;;4.90;0.60;;;;;;;7.11;95.34;100574.75;5022825;28;21877;-62
2023/12/30 09:58:14;;;;;;;1.70;0.50;;;;;;;7.12;95.20;100587.13;5031869;28;20463;-63
2023/12/30 10:00:43;;;;;;;1.60;0.40;;;;;;;7.16;94.77;100580.91;5031393;28;20478;-63
2023/12/30 10:03:10;;;;;;;9.50;1.80;;;;;;;7.19;94.53;100587.66;5039964;28;20860;-63
2023/12/30 10:05:37;;;;;;;1.60;0.47;;;;;;;7.25;94.48;100592.72;5039552;28;20526;-63
2023/12/30 10:08:06;;;;;;;1.60;0.40;;;;;;;7.29;94.08;100598.34;5031661;28;20527;-65
2023/12/30 10:10:51;;;;;;;1.60;0.40;;;;;;;7.32;94.34;100584.34;5037211;28;21003;-63
2023/12/30 10:13:22;;;;;;;2.10;0.53;;;;;;;7.39;93.97;100603.69;5021652;28;20497;-63
2023/12/30 10:15:49;;;;;;;1.60;0.40;;;;;;;7.43;94.43;100593.16;5035891;28;20458;-66
2023/12/30 10:18:16;;;;;;;1.80;0.40;;;;;;;7.46;94.41;100598.00;5046718;28;20496;-62
2023/12/30 10:20:44;;;;;;;1.60;0.40;;;;;;;7.50;93.62;100609.81;5034884;28;20478;-62
2023/12/30 10:23:12;;;;;;;1.80;0.50;;;;;;;7.55;93.41;100609.78;5038088;28;20445;-62
2023/12/30 10:25:39;;;;;;;1.80;0.63;;;;;;;7.61;92.91;100608.66;5044296;28;20479;-62
2023/12/30 10:28:07;;;;;;;12.33;0.87;;;;;;;7.65;93.27;100620.50;5035598;28;20956;-63
2023/12/30 10:30:34;;;;;;;1.60;0.40;;;;;;;7.67;93.38;100623.72;5023675;28;20516;-62
2023/12/30 10:33:07;;;;;;;1.70;0.50;;;;;;;7.72;91.94;100617.50;5044205;28;20434;-62
2023/12/30 10:35:33;;;;;;;1.60;0.40;;;;;;;7.74;92.42;100620.69;5025441;28;20459;-62
2023/12/30 10:38:01;;;;;;;8.30;0.60;;;;;;;7.82;92.16;100618.22;5025493;28;20463;-63
2023/12/30 10:40:29;;;;;;;1.70;0.47;;;;;;;7.84;92.09;100615.25;5029936;28;20485;-63
2023/12/30 10:42:57;;;;;;;1.60;0.40;;;;;;;7.91;91.63;100623.00;5026612;28;20449;-63
2023/12/30 10:45:24;;;;;;;1.80;0.53;;;;;;;7.93;91.87;100618.16;5034684;28;20467;-62
2023/12/30 10:47:51;;;;;;;1.60;0.40;;;;;;;7.89;92.17;100620.59;5033361;28;20440;-62
2023/12/30 10:50:18;;;;;;;3.67;0.77;;;;;;;7.89;92.08;100619.78;5028337;28;20442;-62
2023/12/30 10:52:47;;;;;;;2.13;0.40;;;;;;;7.87;92.36;100630.84;5033363;28;20795;-62
2023/12/30 10:55:17;;;;;;;1.80;0.50;;;;;;;7.88;91.53;100632.47;5032687;28;20979;-62
2023/12/30 10:57:52;;;;;;;1.70;0.53;;;;;;;7.96;91.24;100639.94;5033837;28;20493;-62
2023/12/30 11:00:21;;;;;;;4.87;0.73;;;;;;;7.93;92.12;100634.34;5028774;28;20558;-62
2023/12/30 11:02:48;;;;;;;1.80;0.50;;;;;;;7.99;91.57;100639.38;5031774;28;20439;-62
2023/12/30 11:05:24;;;;;;;1.73;0.47;;;;;;;7.97;91.76;100632.66;5041433;28;20466;-62
2023/12/30 11:07:51;;;;;;;2.77;0.60;;;;;;;8.03;91.20;100618.84;5032919;28;20431;-65
2023/12/30 11:10:19;;;;;;;1.90;0.70;;;;;;;8.10;90.63;100637.41;5037313;28;20519;-65
2023/12/30 11:12:48;;;;;;;1.80;0.50;;;;;;;8.12;90.29;100639.81;5028558;28;20523;-62
2023/12/30 11:15:28;;;;;;;2.17;0.90;;;;;;;8.10;90.87;100637.41;5031529;28;20469;-62
2023/12/30 11:17:56;;;;;;;1.67;0.40;;;;;;;8.12;90.52;100637.13;5032013;28;20427;-61
2023/12/30 11:20:28;;;;;;;4.40;1.10;;;;;;;8.15;91.29;100634.69;5034340;28;20475;-61
2023/12/30 11:22:55;;;;;;;1.80;0.70;;;;;;;8.18;89.75;100623.31;5032772;28;20758;-61
2023/12/30 11:25:22;;;;;;;1.67;0.50;;;;;;;8.22;89.82;100616.25;5027353;28;20444;-62
2023/12/30 11:27:53;;;;;;;2.67;1.60;;;;;;;8.20;90.61;100623.84;5030180;28;20459;-62